首页
METAR-TAF:

METAR-TAF

机场 :

马扎里沙里夫国际机场

马扎里沙里夫, 阿富汗

纬度: 36-42N, 经度: 067-12E, 海拔: 378米

当前天气观测

该预报发布于25分钟前的15:50 UTC
风速25节,风向西
温度 3°C
湿度 93%
气压 1029 hPa
能见度10公里或以上
多云层高于900英尺
多云层高于1600英尺
阴天层高于2400英尺
小毛毛雨

METAR: OAMS 081550Z 26025KT 9999 -DZ BKN009 BKN016 OVC024 03/02 Q1029 GRN WHT TEMPO YLO

时间: 20:45 (16:15 UTC)

预报

预报有效从31日的 00点(UTC)到 01日的 00点(UTC)
风速15节,风向西转西南
能見度: 8000
散云层高于1000英尺
多云层高于1500英尺
阴天层高于3000英尺
小雨
短暂存在
从 08日的 15点(UTC)到 08日的 20点(UTC)
风速15节,风向西,有时为25节阵风
能見度: 7000
多云层高于500英尺
多云层高于1200英尺
阴天层高于2000英尺
小雨
短暂存在
从 08日的 20点(UTC)到 09日的 02点(UTC)
风速12节,风向西南
能見度: 4000
散云层高于500英尺
阴天层高于800英尺
小雨
成为
从 09日的 03点(UTC)到 09日的 05点(UTC)
风速8节,风向
能見度: 8000
散云层高于1500英尺
多云层高于2500英尺
阴天层高于6000英尺
附近有阵雨
短暂存在
从 09日的 08点(UTC)到 09日的 12点(UTC)
风速15节,风向东转东北,有时为25节阵风
能见度10公里或以上
散云层高于2000英尺
多云层高于4000英尺
多云层高于25000英尺

TAF: OAMS AMD 081557Z 0815/0912 25015KT 8000 -RA SCT010 BKN015 OVC030 TEMPO 0815/0820 28015G25KT 7000 -RA BKN005 BKN012 OVC020 TEMPO 0820/0902 22012KT 4000 -RA SCT005 OVC008 BECMG 0903/0905 36008KT 8000 VCSH SCT015 BKN025 OVC060 TEMPO 0908/0912 06015G25KT 9999 NSW SCT020 BKN040 BKN250

超过4000个机场的气象观测和天气预报(METAR&TAF报告)。

可查询的气象台以黄色和红色小点在地图上表示。

将鼠标移到小点上方,可查看气象台名称。

然后点击查看天气观测和预报。

如需切换地图:点击带黑十字的绿色按钮放大地图;点击带横线的绿色按钮缩小地图;或者点击绿色箭头查看邻近地区的地图。


METAR-TAF: